Time;durP1;ratioP1;P1;durP2;ratioP2;P2;SDS_P1;SDS_P2;PMS_P1;PMS_P2;Temp;Humidity;BMP_temperature;BMP_pressure;BME280_temperature;BME280_humidity;BME280_pressure;Samples;Min_cycle;Max_cycle;Signal;HPM_P1;HPM_P2
2023/04/02 00:01:26;;;;;;;0.73;0.60;;;;;;;;;;4972953;28;20198;-87
2023/04/02 00:04:36;;;;;;;0.70;0.67;;;;;;;;;;4963065;28;20186;-86
2023/04/02 00:07:43;;;;;;;2.07;0.70;;;;;;;;;;4972626;28;20214;-87
2023/04/02 00:10:50;;;;;;;0.70;0.70;;;;;;;;;;4972703;28;20183;-87
2023/04/02 00:13:54;;;;;;;1.67;0.70;;;;;;;;;;4972412;28;20183;-87
2023/04/02 00:17:04;;;;;;;1.27;0.80;;;;;;;;;;4974248;28;20694;-87
2023/04/02 00:20:18;;;;;;;2.33;0.60;;;;;;;;;;4972400;28;20190;-87
2023/04/02 00:23:40;;;;;;;1.13;0.87;;;;;;;;;;4983570;28;20190;-87
2023/04/02 00:27:39;;;;;;;2.47;0.70;;;;;;;;;;4983413;28;20222;-87
2023/04/02 00:31:00;;;;;;;1.00;0.60;;;;;;;;;;4972091;28;20199;-87
2023/04/02 00:34:24;;;;;;;1.20;0.63;;;;;;;;;;4972375;28;20175;-87
2023/04/02 00:37:38;;;;;;;1.47;0.53;;;;;;;;;;4995087;28;20223;-87
2023/04/02 00:40:46;;;;;;;3.20;0.60;;;;;;;;;;4972557;28;20175;-87
2023/04/02 00:43:51;;;;;;;0.90;0.60;;;;;;;;;;4972882;28;20186;-87
2023/04/02 00:46:56;;;;;;;0.83;0.60;;;;;;;;;;4973559;28;20222;-87
2023/04/02 00:50:22;;;;;;;2.07;0.80;;;;;;;;;;4972242;28;20186;-87
2023/04/02 00:53:29;;;;;;;1.77;0.60;;;;;;;;;;4971781;28;20214;-87
2023/04/02 00:56:42;;;;;;;1.43;0.70;;;;;;;;;;4971758;28;20635;-87
2023/04/02 00:59:53;;;;;;;3.27;0.83;;;;;;;;;;4971830;28;20635;-86
2023/04/02 01:03:27;;;;;;;0.60;0.50;;;;;;;;;;4971717;28;20186;-87
2023/04/02 01:06:36;;;;;;;1.37;0.60;;;;;;;;;;4971668;28;20524;-87
2023/04/02 01:10:14;;;;;;;0.60;0.60;;;;;;;;;;4971668;28;20190;-87
2023/04/02 01:13:32;;;;;;;2.50;1.00;;;;;;;;;;4960573;28;20214;-87
2023/04/02 01:17:34;;;;;;;0.60;0.60;;;;;;;;;;4960429;28;20230;-87
2023/04/02 01:20:55;;;;;;;1.63;0.70;;;;;;;;;;4909941;28;20663;-87
2023/04/02 01:24:07;;;;;;;1.50;0.90;;;;;;;;;;4971477;28;20175;-87
2023/04/02 01:27:26;;;;;;;1.27;0.60;;;;;;;;;;4971397;28;20694;-87
2023/04/02 01:30:34;;;;;;;0.63;0.60;;;;;;;;;;4971522;28;20186;-87
2023/04/02 01:33:40;;;;;;;0.80;0.53;;;;;;;;;;4982347;28;20221;-87
2023/04/02 01:37:15;;;;;;;0.83;0.50;;;;;;;;;;4982379;28;20221;-87
2023/04/02 01:40:32;;;;;;;1.00;0.60;;;;;;;;;;4960215;28;20186;-87
2023/04/02 01:43:52;;;;;;;1.17;0.60;;;;;;;;;;4960337;28;20194;-87
2023/04/02 01:46:59;;;;;;;1.67;0.67;;;;;;;;;;4971362;28;20226;-87
2023/04/02 01:50:17;;;;;;;0.60;0.60;;;;;;;;;;4960149;28;20186;-87
2023/04/02 01:53:24;;;;;;;2.23;0.80;;;;;;;;;;4960193;28;20218;-87
2023/04/02 01:56:29;;;;;;;1.23;0.60;;;;;;;;;;4960211;28;20182;-87
2023/04/02 01:59:34;;;;;;;1.57;0.60;;;;;;;;;;4973361;28;20627;-87
2023/04/02 02:02:43;;;;;;;2.93;0.73;;;;;;;;;;4975370;28;20190;-87
2023/04/02 02:05:49;;;;;;;1.13;0.60;;;;;;;;;;4975149;28;20182;-87
2023/04/02 02:08:58;;;;;;;1.53;0.60;;;;;;;;;;4975134;28;20547;-87
2023/04/02 02:12:03;;;;;;;2.00;0.57;;;;;;;;;;4963708;28;20202;-87
2023/04/02 02:15:20;;;;;;;1.10;0.50;;;;;;;;;;4974921;28;20211;-87
2023/04/02 02:18:26;;;;;;;1.07;0.70;;;;;;;;;;4974434;28;20225;-87
2023/04/02 02:21:56;;;;;;;1.57;0.57;;;;;;;;;;4974823;28;20186;-87
2023/04/02 02:25:10;;;;;;;1.00;0.53;;;;;;;;;;4974749;28;20182;-87
2023/04/02 02:28:23;;;;;;;2.30;0.80;;;;;;;;;;4974309;28;20218;-87
2023/04/02 02:31:31;;;;;;;0.93;0.60;;;;;;;;;;4974164;28;20202;-87
2023/04/02 02:34:42;;;;;;;0.57;0.50;;;;;;;;;;4974455;28;20528;-87
2023/04/02 02:37:53;;;;;;;1.60;1.10;;;;;;;;;;4974389;28;20226;-87
2023/04/02 02:41:05;;;;;;;2.30;0.57;;;;;;;;;;4974483;28;20190;-87
2023/04/02 02:44:10;;;;;;;1.63;0.60;;;;;;;;;;4974134;28;20198;-87
2023/04/02 02:47:20;;;;;;;0.83;0.60;;;;;;;;;;4963375;28;20218;-87
2023/04/02 02:50:31;;;;;;;1.67;0.80;;;;;;;;;;4974097;28;20194;-87
2023/04/02 02:53:45;;;;;;;2.07;0.77;;;;;;;;;;4963368;28;20210;-87
2023/04/02 02:56:56;;;;;;;1.47;0.77;;;;;;;;;;4974021;28;20695;-87
2023/04/02 03:00:05;;;;;;;0.97;0.70;;;;;;;;;;4974124;28;20186;-87
2023/04/02 03:03:22;;;;;;;0.80;0.50;;;;;;;;;;4974015;28;20178;-87
2023/04/02 03:06:31;;;;;;;1.10;0.70;;;;;;;;;;4973953;28;20194;-87
2023/04/02 03:10:14;;;;;;;1.10;0.60;;;;;;;;;;4963011;28;20206;-87
2023/04/02 03:13:37;;;;;;;0.60;0.50;;;;;;;;;;4962527;28;20675;-87
2023/04/02 03:16:50;;;;;;;3.17;0.70;;;;;;;;;;4973660;28;20222;-87
2023/04/02 03:20:14;;;;;;;2.67;0.80;;;;;;;;;;4984793;28;20186;-87
2023/04/02 03:23:34;;;;;;;1.60;0.60;;;;;;;;;;4962778;28;20183;-87
2023/04/02 03:26:55;;;;;;;1.60;0.80;;;;;;;;;;4973808;28;20230;-87
2023/04/02 03:30:26;;;;;;;1.63;0.73;;;;;;;;;;4973442;28;20190;-87
2023/04/02 03:33:41;;;;;;;2.30;0.60;;;;;;;;;;4973303;28;20213;-87
2023/04/02 03:36:56;;;;;;;2.13;0.80;;;;;;;;;;4973569;28;20218;-87
2023/04/02 03:40:09;;;;;;;1.53;0.60;;;;;;;;;;4973661;28;20186;-87
2023/04/02 03:43:13;;;;;;;0.70;0.50;;;;;;;;;;4973024;28;20182;-87
2023/04/02 03:46:36;;;;;;;1.43;0.53;;;;;;;;;;4962155;28;20201;-87
2023/04/02 03:49:52;;;;;;;2.00;0.67;;;;;;;;;;4984162;28;20194;-87
2023/04/02 03:52:58;;;;;;;1.40;0.60;;;;;;;;;;4973443;28;20222;-87
2023/04/02 03:56:25;;;;;;;2.10;0.70;;;;;;;;;;4973840;28;20190;-87
2023/04/02 04:00:15;;;;;;;2.20;0.70;;;;;;;;;;4995816;28;20232;-87
2023/04/02 04:04:04;;;;;;;1.13;0.80;;;;;;;;;;4977382;28;20324;-87
2023/04/02 04:07:37;;;;;;;1.00;0.63;;;;;;;;;;4983721;28;20217;-87
2023/04/02 04:10:54;;;;;;;0.93;0.70;;;;;;;;;;4983905;28;20178;-87
2023/04/02 04:14:08;;;;;;;2.10;0.50;;;;;;;;;;4972340;28;20222;-87
2023/04/02 04:17:30;;;;;;;1.57;0.70;;;;;;;;;;4961305;28;20230;-86
2023/04/02 04:20:49;;;;;;;1.37;0.70;;;;;;;;;;4972897;28;20190;-87
2023/04/02 04:24:06;;;;;;;1.17;0.50;;;;;;;;;;4982692;28;20309;-86
2023/04/02 04:27:41;;;;;;;1.37;0.73;;;;;;;;;;4994326;28;20222;-87
2023/04/02 04:31:21;;;;;;;1.00;0.67;;;;;;;;;;4972666;28;20532;-87
2023/04/02 04:34:41;;;;;;;1.27;0.60;;;;;;;;;;4972087;28;20223;-87
2023/04/02 04:37:57;;;;;;;1.10;0.60;;;;;;;;;;4971697;28;20691;-86
2023/04/02 04:41:10;;;;;;;0.90;0.60;;;;;;;;;;4982929;28;20635;-87
2023/04/02 04:44:23;;;;;;;1.10;0.70;;;;;;;;;;4995157;28;20186;-86
2023/04/02 04:47:50;;;;;;;1.43;0.80;;;;;;;;;;4982492;28;20217;-87
2023/04/02 04:51:17;;;;;;;0.97;0.67;;;;;;;;;;4982787;28;20536;-86
2023/04/02 04:54:27;;;;;;;1.73;0.73;;;;;;;;;;4960625;28;20218;-87
2023/04/02 04:57:39;;;;;;;2.27;0.83;;;;;;;;;;4983231;28;20251;-86
2023/04/02 05:01:21;;;;;;;1.70;0.87;;;;;;;;;;4971592;28;20194;-87
2023/04/02 05:04:50;;;;;;;1.23;0.60;;;;;;;;;;4971750;28;20186;-87
2023/04/02 05:08:24;;;;;;;1.27;0.87;;;;;;;;;;4973521;28;20221;-85
2023/04/02 05:12:01;;;;;;;0.80;0.67;;;;;;;;;;4978772;28;20186;-88
2023/04/02 05:15:19;;;;;;;1.55;1.00;;;;;;;;;;5003819;28;20709;-88
2023/04/02 05:18:36;;;;;;;3.07;0.90;;;;;;;;;;5004150;28;20671;-87
2023/04/02 05:21:56;;;;;;;1.23;1.07;;;;;;;;;;5003516;28;20186;-87
2023/04/02 05:25:20;;;;;;;1.75;0.73;;;;;;;;;;5002114;28;20673;-87
2023/04/02 05:28:53;;;;;;;1.43;0.90;;;;;;;;;;4981365;28;20733;-86
2023/04/02 05:32:21;;;;;;;2.00;0.98;;;;;;;;;;4992788;28;20677;-87
2023/04/02 05:35:39;;;;;;;1.47;0.70;;;;;;;;;;5005068;28;20182;-86
2023/04/02 05:38:50;;;;;;;2.07;0.70;;;;;;;;;;5005574;28;20187;-86
2023/04/02 05:42:07;;;;;;;2.57;1.30;;;;;;;;;;5001858;28;20194;-88
2023/04/02 05:45:31;;;;;;;1.43;0.60;;;;;;;;;;4986554;28;20179;-88
2023/04/02 05:48:39;;;;;;;72.17;37.20;;;;;;;;;;4980307;28;20222;-88
2023/04/02 05:51:49;;;;;;;10.07;5.57;;;;;;;;;;4981591;28;20184;-88
2023/04/02 05:55:34;;;;;;;1.10;0.80;;;;;;;;;;4996248;28;20218;-87
2023/04/02 05:59:15;;;;;;;0.73;0.70;;;;;;;;;;4983837;28;20234;-88
2023/04/02 06:02:41;;;;;;;1.80;1.07;;;;;;;;;;4984511;28;20202;-88
2023/04/02 06:05:50;;;;;;;2.43;1.00;;;;;;;;;;4983211;28;20182;-89
2023/04/02 06:09:07;;;;;;;4.57;2.50;;;;;;;;;;4990369;28;20186;-89
2023/04/02 06:12:28;;;;;;;2.13;1.50;;;;;;;;;;4977691;28;20206;-88
2023/04/02 06:15:36;;;;;;;3.37;0.80;;;;;;;;;;4991807;28;20174;-88
2023/04/02 06:18:45;;;;;;;2.10;1.40;;;;;;;;;;4981192;28;20676;-88
2023/04/02 06:21:58;;;;;;;2.90;0.93;;;;;;;;;;4980535;28;20190;-89
2023/04/02 06:25:28;;;;;;;3.63;1.20;;;;;;;;;;4989075;28;20190;-87
2023/04/02 06:28:40;;;;;;;4.00;1.03;;;;;;;;;;5015206;28;20221;-87
2023/04/02 06:32:00;;;;;;;6.57;3.93;;;;;;;;;;4993225;28;20186;-87
2023/04/02 06:35:05;;;;;;;2.37;1.60;;;;;;;;;;4993137;28;20194;-86
2023/04/02 06:38:18;;;;;;;2.27;2.07;;;;;;;;;;4993208;28;20198;-86
2023/04/02 06:41:23;;;;;;;1.70;1.20;;;;;;;;;;5004519;28;20190;-87
2023/04/02 06:44:51;;;;;;;3.03;1.03;;;;;;;;;;5003411;28;20206;-87
2023/04/02 06:48:27;;;;;;;2.37;0.90;;;;;;;;;;5009220;28;20206;-87
2023/04/02 06:51:37;;;;;;;1.47;1.00;;;;;;;;;;5007148;28;20182;-87
2023/04/02 06:54:42;;;;;;;1.90;1.07;;;;;;;;;;5017912;28;20221;-87
2023/04/02 06:57:48;;;;;;;1.67;0.90;;;;;;;;;;5007558;28;20221;-87
2023/04/02 07:00:53;;;;;;;2.50;1.20;;;;;;;;;;5006017;28;20210;-87
2023/04/02 07:04:07;;;;;;;2.17;1.30;;;;;;;;;;5007426;28;20174;-87
2023/04/02 07:07:17;;;;;;;1.57;1.10;;;;;;;;;;4996128;28;20198;-87
2023/04/02 07:10:25;;;;;;;2.63;1.07;;;;;;;;;;4996075;28;20174;-87
2023/04/02 07:13:29;;;;;;;1.57;0.97;;;;;;;;;;5007496;28;20194;-87
2023/04/02 07:16:35;;;;;;;2.27;1.10;;;;;;;;;;4995716;28;20178;-87
2023/04/02 07:19:40;;;;;;;2.00;1.10;;;;;;;;;;4995677;28;20182;-87
2023/04/02 07:22:45;;;;;;;3.07;1.13;;;;;;;;;;4984602;28;20186;-87
2023/04/02 07:25:52;;;;;;;1.50;0.90;;;;;;;;;;4995423;28;20174;-87
2023/04/02 07:28:57;;;;;;;2.33;1.10;;;;;;;;;;5006735;28;20178;-88
2023/04/02 07:32:02;;;;;;;1.57;1.00;;;;;;;;;;5007540;28;20190;-88
2023/04/02 07:35:09;;;;;;;1.53;1.10;;;;;;;;;;4996303;28;20210;-87
2023/04/02 07:38:13;;;;;;;2.30;1.10;;;;;;;;;;4995747;28;20213;-87
2023/04/02 07:41:18;;;;;;;3.30;1.00;;;;;;;;;;4994856;28;20198;-87
2023/04/02 07:44:23;;;;;;;2.17;1.30;;;;;;;;;;4995181;28;20178;-87
2023/04/02 07:47:28;;;;;;;2.07;1.10;;;;;;;;;;5006649;28;20206;-87
2023/04/02 07:50:32;;;;;;;2.23;1.10;;;;;;;;;;5008239;28;20186;-87
2023/04/02 07:53:37;;;;;;;1.87;1.20;;;;;;;;;;4996024;28;20190;-87
2023/04/02 07:56:41;;;;;;;3.17;1.13;;;;;;;;;;5004813;28;20198;-87
2023/04/02 07:59:46;;;;;;;0.93;0.87;;;;;;;;;;4994957;28;20186;-87
2023/04/02 08:02:51;;;;;;;1.87;1.00;;;;;;;;;;5018805;28;20190;-87
2023/04/02 08:05:57;;;;;;;3.33;1.10;;;;;;;;;;5006049;28;20170;-86
2023/04/02 08:09:02;;;;;;;1.67;1.17;;;;;;;;;;4995123;28;20186;-86
2023/04/02 08:12:12;;;;;;;1.77;1.03;;;;;;;;;;4994697;28;20178;-86
2023/04/02 08:15:17;;;;;;;3.07;1.30;;;;;;;;;;5006401;28;20214;-86
2023/04/02 08:18:22;;;;;;;4.27;1.17;;;;;;;;;;5016679;28;20233;-87
2023/04/02 08:21:26;;;;;;;2.10;1.30;;;;;;;;;;5006768;28;20175;-87
2023/04/02 08:24:30;;;;;;;2.73;1.10;;;;;;;;;;4983259;28;20186;-87
2023/04/02 08:27:35;;;;;;;1.50;0.97;;;;;;;;;;4995686;28;20226;-87
2023/04/02 08:30:39;;;;;;;1.77;1.07;;;;;;;;;;4995498;28;20166;-87
2023/04/02 08:33:44;;;;;;;3.70;1.27;;;;;;;;;;4984989;28;20187;-88
2023/04/02 08:36:48;;;;;;;1.83;1.00;;;;;;;;;;5007781;28;20226;-87
2023/04/02 08:39:52;;;;;;;4.57;1.23;;;;;;;;;;4995822;28;20158;-88
2023/04/02 08:43:07;;;;;;;1.87;1.50;;;;;;;;;;5007309;28;20170;-87
2023/04/02 08:46:27;;;;;;;1.63;1.10;;;;;;;;;;4992097;28;20191;-86
2023/04/02 08:49:38;;;;;;;2.00;0.77;;;;;;;;;;5032282;23;20241;-84
2023/04/02 08:52:42;;;;;;;3.60;1.10;;;;;;;;;;5022427;28;20185;-83
2023/04/02 08:56:02;;;;;;;2.50;1.00;;;;;;;;;;5000373;28;20201;-83
2023/04/02 08:59:20;;;;;;;2.40;1.10;;;;;;;;;;5027362;28;20224;-83
2023/04/02 09:02:42;;;;;;;3.60;1.40;;;;;;;;;;5011515;28;20198;-83
2023/04/02 09:05:48;;;;;;;1.83;1.10;;;;;;;;;;5022787;28;20181;-83
2023/04/02 09:08:54;;;;;;;1.97;1.00;;;;;;;;;;5033253;28;20216;-83
2023/04/02 09:12:02;;;;;;;2.83;0.90;;;;;;;;;;5033382;28;20181;-83
2023/04/02 09:15:19;;;;;;;1.50;1.03;;;;;;;;;;5033319;28;20217;-83
2023/04/02 09:18:23;;;;;;;1.77;1.20;;;;;;;;;;5033362;28;20228;-84
2023/04/02 09:21:36;;;;;;;1.90;1.20;;;;;;;;;;5010397;28;20531;-84
2023/04/02 09:24:40;;;;;;;1.57;1.00;;;;;;;;;;5021754;28;20181;-84
2023/04/02 09:27:48;;;;;;;2.87;1.17;;;;;;;;;;5021586;28;20677;-84
2023/04/02 09:31:15;;;;;;;1.87;0.97;;;;;;;;;;5021598;28;20185;-84
2023/04/02 09:34:31;;;;;;;2.33;1.53;;;;;;;;;;5032825;28;20546;-84
2023/04/02 09:37:36;;;;;;;1.87;1.00;;;;;;;;;;5044029;28;20197;-84
2023/04/02 09:40:46;;;;;;;2.20;1.20;;;;;;;;;;5021515;28;20653;-84
2023/04/02 09:44:30;;;;;;;1.10;1.00;;;;;;;;;;5032612;28;20180;-84
2023/04/02 09:47:38;;;;;;;2.57;2.07;;;;;;;;;;5033002;28;20197;-84
2023/04/02 09:50:43;;;;;;;3.73;2.10;;;;;;;;;;5031827;28;20521;-85
2023/04/02 09:54:05;;;;;;;2.30;1.73;;;;;;;;;;5030830;28;20184;-85
2023/04/02 09:57:23;;;;;;;2.37;1.50;;;;;;;;;;5029856;28;20184;-84
2023/04/02 10:00:27;;;;;;;2.50;1.50;;;;;;;;;;5032094;28;20541;-84
2023/04/02 10:03:32;;;;;;;3.10;1.50;;;;;;;;;;5018586;28;20184;-85
2023/04/02 10:06:36;;;;;;;2.57;1.43;;;;;;;;;;5029385;28;20628;-86
2023/04/02 10:09:41;;;;;;;2.47;2.00;;;;;;;;;;5040791;28;20220;-86
2023/04/02 10:12:57;;;;;;;2.27;1.60;;;;;;;;;;5018787;28;20180;-86
2023/04/02 10:16:18;;;;;;;1.93;1.70;;;;;;;;;;5020044;28;20668;-86
2023/04/02 10:19:39;;;;;;;2.13;1.93;;;;;;;;;;5029481;28;20228;-85
2023/04/02 10:22:45;;;;;;;4.13;1.63;;;;;;;;;;5023463;28;20526;-86
2023/04/02 10:26:06;;;;;;;2.90;1.50;;;;;;;;;;5023825;28;20180;-86
2023/04/02 10:29:41;;;;;;;6.03;2.50;;;;;;;;;;5035827;28;20220;-86
2023/04/02 10:32:54;;;;;;;5.30;2.47;;;;;;;;;;5046654;28;20184;-86
2023/04/02 10:36:18;;;;;;;8.67;5.40;;;;;;;;;;5034608;28;20644;-85
2023/04/02 10:39:30;;;;;;;2.83;2.40;;;;;;;;;;5034366;28;20570;-85
2023/04/02 10:43:06;;;;;;;6.47;4.10;;;;;;;;;;5048251;28;20180;-85
2023/04/02 10:46:21;;;;;;;3.77;1.80;;;;;;;;;;5025831;28;20632;-86
2023/04/02 10:49:50;;;;;;;2.30;1.83;;;;;;;;;;5024656;28;20220;-86
2023/04/02 10:53:09;;;;;;;2.50;1.60;;;;;;;;;;5026133;28;20188;-85
2023/04/02 10:56:16;;;;;;;1.83;1.67;;;;;;;;;;5049270;28;20220;-85
2023/04/02 10:59:25;;;;;;;3.93;2.00;;;;;;;;;;5023653;28;20219;-86
2023/04/02 11:02:57;;;;;;;2.23;1.60;;;;;;;;;;5049599;28;20184;-86
2023/04/02 11:06:12;;;;;;;2.33;1.63;;;;;;;;;;5029747;28;20189;-86
2023/04/02 11:09:22;;;;;;;2.27;1.97;;;;;;;;;;5034368;28;20219;-86
2023/04/02 11:12:39;;;;;;;3.17;1.93;;;;;;;;;;5025061;28;20641;-86
2023/04/02 11:15:44;;;;;;;2.43;1.77;;;;;;;;;;5024180;28;20208;-86
2023/04/02 11:19:08;;;;;;;4.40;1.93;;;;;;;;;;5037531;28;20227;-85
2023/04/02 11:22:15;;;;;;;2.00;1.60;;;;;;;;;;5022338;28;20180;-85
2023/04/02 11:25:20;;;;;;;3.27;1.50;;;;;;;;;;5043866;28;20176;-86
2023/04/02 11:28:30;;;;;;;2.70;1.70;;;;;;;;;;5032011;28;20215;-86
2023/04/02 11:31:35;;;;;;;3.60;1.50;;;;;;;;;;5055639;28;20192;-86
2023/04/02 11:34:39;;;;;;;3.00;1.90;;;;;;;;;;5021015;28;20184;-86
2023/04/02 11:37:44;;;;;;;1.80;1.57;;;;;;;;;;5020621;28;20187;-86
2023/04/02 11:40:57;;;;;;;2.30;1.90;;;;;;;;;;5021723;28;20196;-86
2023/04/02 11:44:01;;;;;;;1.53;1.40;;;;;;;;;;5043051;28;20189;-86
2023/04/02 11:47:16;;;;;;;2.87;1.83;;;;;;;;;;5020487;28;20180;-86
2023/04/02 11:50:33;;;;;;;2.37;1.80;;;;;;;;;;5020268;28;20192;-86
2023/04/02 11:53:41;;;;;;;3.57;2.00;;;;;;;;;;5020185;28;20530;-86
2023/04/02 11:56:56;;;;;;;2.40;1.63;;;;;;;;;;5031612;28;20203;-86
2023/04/02 12:00:37;;;;;;;1.73;1.63;;;;;;;;;;5020407;28;20192;-86
2023/04/02 12:03:55;;;;;;;1.80;1.60;;;;;;;;;;5020359;28;20204;-86
2023/04/02 12:07:36;;;;;;;2.13;1.70;;;;;;;;;;5031073;28;20192;-86
2023/04/02 12:10:57;;;;;;;3.10;2.07;;;;;;;;;;5031459;28;20180;-86
2023/04/02 12:14:22;;;;;;;11.33;7.50;;;;;;;;;;5019895;28;20192;-86
2023/04/02 12:17:39;;;;;;;7.73;4.90;;;;;;;;;;5036975;28;20184;-86
2023/04/02 12:20:49;;;;;;;21.67;13.67;;;;;;;;;;5020240;28;20192;-86
2023/04/02 12:23:58;;;;;;;5.73;3.57;;;;;;;;;;5043059;28;20195;-86
2023/04/02 12:27:07;;;;;;;2.10;1.87;;;;;;;;;;5031241;28;20180;-86
2023/04/02 12:30:22;;;;;;;2.00;1.70;;;;;;;;;;5053734;28;20193;-86
2023/04/02 12:33:36;;;;;;;3.07;2.37;;;;;;;;;;5019984;28;20188;-86
2023/04/02 12:37:01;;;;;;;10.57;6.50;;;;;;;;;;5042015;28;20204;-86
2023/04/02 12:40:16;;;;;;;3.00;2.20;;;;;;;;;;5030925;28;20663;-86
2023/04/02 12:43:25;;;;;;;1.23;0.60;;;;;;;;;;5029858;28;20184;-86
2023/04/02 12:46:31;;;;;;;3.33;1.63;;;;;;;;;;5030659;28;20185;-86
2023/04/02 12:49:38;;;;;;;0.97;0.80;;;;;;;;;;5019036;28;20228;-86
2023/04/02 12:52:48;;;;;;;6.43;3.37;;;;;;;;;;5030562;28;20188;-86
2023/04/02 12:55:53;;;;;;;2.07;1.10;;;;;;;;;;5018899;28;20220;-86
2023/04/02 12:58:58;;;;;;;1.23;0.90;;;;;;;;;;5030077;28;20223;-86
2023/04/02 13:02:17;;;;;;;2.10;1.40;;;;;;;;;;5041803;28;20180;-86
2023/04/02 13:05:39;;;;;;;4.40;2.27;;;;;;;;;;5019247;28;20176;-86
2023/04/02 13:08:43;;;;;;;2.93;1.80;;;;;;;;;;5018746;28;20223;-86
2023/04/02 13:11:47;;;;;;;2.17;1.40;;;;;;;;;;5030361;28;20632;-86
2023/04/02 13:14:56;;;;;;;0.77;0.63;;;;;;;;;;5030313;28;20180;-86
2023/04/02 13:18:12;;;;;;;1.03;0.80;;;;;;;;;;5041202;28;20208;-86
2023/04/02 13:21:20;;;;;;;2.53;0.80;;;;;;;;;;5030069;28;20189;-86
2023/04/02 13:24:27;;;;;;;2.27;0.90;;;;;;;;;;5018728;28;20208;-86
2023/04/02 13:27:31;;;;;;;0.97;0.80;;;;;;;;;;5041366;28;20181;-85
2023/04/02 13:30:35;;;;;;;2.13;1.40;;;;;;;;;;5041652;28;20176;-85
2023/04/02 13:33:39;;;;;;;2.10;1.00;;;;;;;;;;5018705;28;20184;-86
2023/04/02 13:36:44;;;;;;;1.00;0.90;;;;;;;;;;5018407;28;20216;-86
2023/04/02 13:39:48;;;;;;;0.90;0.70;;;;;;;;;;5029627;28;20228;-86
2023/04/02 13:42:53;;;;;;;1.80;0.73;;;;;;;;;;5040930;28;20204;-86
2023/04/02 13:45:58;;;;;;;1.37;0.80;;;;;;;;;;5018572;28;20640;-86
2023/04/02 13:49:02;;;;;;;1.00;0.70;;;;;;;;;;5040747;28;20223;-86
2023/04/02 13:52:13;;;;;;;1.47;1.10;;;;;;;;;;5029759;28;20192;-85
2023/04/02 13:55:21;;;;;;;1.60;0.70;;;;;;;;;;5031302;28;20526;-85
2023/04/02 13:58:25;;;;;;;16.43;6.23;;;;;;;;;;5022192;28;20215;-86
2023/04/02 14:01:30;;;;;;;1.73;1.17;;;;;;;;;;5033707;28;20184;-86
2023/04/02 14:04:39;;;;;;;0.50;0.50;;;;;;;;;;5033730;28;20184;-85
2023/04/02 14:07:55;;;;;;;1.40;0.80;;;;;;;;;;5044676;28;20669;-85
2023/04/02 14:11:05;;;;;;;3.77;1.67;;;;;;;;;;5022332;28;20184;-85
2023/04/02 14:14:25;;;;;;;1.67;1.57;;;;;;;;;;5022084;28;20184;-85
2023/04/02 14:18:17;;;;;;;4.27;2.17;;;;;;;;;;5033234;28;20212;-85
2023/04/02 14:21:50;;;;;;;1.77;1.37;;;;;;;;;;4935112;29;20192;-85
2023/04/02 14:25:10;;;;;;;6.10;1.60;;;;;;;;;;4969519;28;20204;-85
2023/04/02 14:28:22;;;;;;;1.83;1.60;;;;;;;;;;5021957;28;20216;-86
2023/04/02 14:31:33;;;;;;;1.33;1.10;;;;;;;;;;5022103;28;20184;-86
2023/04/02 14:35:13;;;;;;;1.63;1.27;;;;;;;;;;5033246;28;20188;-86
2023/04/02 14:38:33;;;;;;;1.30;1.20;;;;;;;;;;4938689;28;20223;-85
2023/04/02 14:41:40;;;;;;;2.17;1.47;;;;;;;;;;5021974;28;20196;-86
2023/04/02 14:44:56;;;;;;;1.50;1.40;;;;;;;;;;5033097;28;20637;-86
2023/04/02 15:15:20;;;;;;;1.97;1.73;;;;;;;;;;5042077;28;20188;-89
2023/04/02 15:25:38;;;;;;;1.80;1.70;;;;;;;;;;4981146;28;20187;-89
2023/04/02 16:31:36;;;;;;;3.20;2.90;;;;;;;;;;4869987;29;20194;-88
2023/04/02 16:36:17;;;;;;;2.30;2.10;;;;;;;;;;4910758;29;20207;-85
2023/04/02 16:44:35;;;;;;;3.47;3.17;;;;;;;;;;4944039;29;20585;-88
2023/04/02 16:47:58;;;;;;;4.00;3.47;;;;;;;;;;5009367;28;20205;-87
2023/04/02 16:51:15;;;;;;;3.27;2.97;;;;;;;;;;5011171;28;20181;-88
2023/04/02 16:54:28;;;;;;;3.20;3.00;;;;;;;;;;5010494;28;20201;-88
2023/04/02 16:57:46;;;;;;;5.67;4.87;;;;;;;;;;4999829;28;20217;-87
2023/04/02 17:00:59;;;;;;;3.77;3.17;;;;;;;;;;5010851;28;20185;-88
2023/04/02 17:04:23;;;;;;;4.60;3.03;;;;;;;;;;5011740;28;20189;-87
2023/04/02 17:07:39;;;;;;;3.83;3.53;;;;;;;;;;5000507;28;20185;-88
2023/04/02 17:10:51;;;;;;;3.17;2.97;;;;;;;;;;5000578;28;20189;-89
2023/04/02 17:14:17;;;;;;;5.00;4.50;;;;;;;;;;5000311;28;20201;-89
2023/04/02 17:17:21;;;;;;;4.57;3.87;;;;;;;;;;5023466;28;20220;-87
2023/04/02 17:21:15;;;;;;;3.60;3.30;;;;;;;;;;5013570;28;20542;-87
2023/04/02 17:24:28;;;;;;;3.87;3.57;;;;;;;;;;5000113;28;20300;-88
2023/04/02 17:27:39;;;;;;;3.70;3.40;;;;;;;;;;5000362;28;20181;-88
2023/04/02 17:30:47;;;;;;;4.37;3.87;;;;;;;;;;4999704;28;20629;-88
2023/04/02 17:33:52;;;;;;;3.20;2.90;;;;;;;;;;5010921;28;20181;-88
2023/04/02 17:37:12;;;;;;;4.40;2.70;;;;;;;;;;4999882;28;20216;-88
2023/04/02 17:40:26;;;;;;;4.30;2.40;;;;;;;;;;5022287;28;20224;-88
2023/04/02 17:43:36;;;;;;;2.57;2.37;;;;;;;;;;5010707;28;20189;-88
2023/04/02 17:46:55;;;;;;;3.27;2.97;;;;;;;;;;5011043;28;20188;-88
2023/04/02 17:50:18;;;;;;;2.80;2.60;;;;;;;;;;5004706;28;20225;-88
2023/04/02 17:53:35;;;;;;;3.10;2.80;;;;;;;;;;5024394;28;20181;-88
2023/04/02 17:56:57;;;;;;;2.93;2.63;;;;;;;;;;5011336;28;20669;-88
2023/04/02 18:00:21;;;;;;;3.80;2.70;;;;;;;;;;4999345;28;20220;-88
2023/04/02 18:03:50;;;;;;;3.63;2.83;;;;;;;;;;5010787;28;20189;-88
2023/04/02 18:07:24;;;;;;;3.00;2.70;;;;;;;;;;5010941;28;20181;-88
2023/04/02 18:10:41;;;;;;;3.10;2.80;;;;;;;;;;5000000;28;20402;-88
2023/04/02 18:13:59;;;;;;;7.93;3.30;;;;;;;;;;5010610;28;20200;-88
2023/04/02 18:17:03;;;;;;;3.37;3.07;;;;;;;;;;5011814;28;20216;-88
2023/04/02 18:20:08;;;;;;;3.63;2.67;;;;;;;;;;5012435;28;20688;-88
2023/04/02 18:23:32;;;;;;;3.00;2.70;;;;;;;;;;5011110;28;20181;-87
2023/04/02 18:26:41;;;;;;;4.17;3.17;;;;;;;;;;5010707;28;20185;-88
2023/04/02 18:30:02;;;;;;;4.00;2.70;;;;;;;;;;4990569;28;20230;-88
2023/04/02 18:33:27;;;;;;;2.57;2.20;;;;;;;;;;5002892;28;20182;-88
2023/04/02 18:36:49;;;;;;;2.57;2.30;;;;;;;;;;5002669;28;20642;-88
2023/04/02 18:39:59;;;;;;;5.43;2.60;;;;;;;;;;5013760;28;20222;-87
2023/04/02 18:43:19;;;;;;;2.93;2.63;;;;;;;;;;5015359;28;20674;-87
2023/04/02 18:46:56;;;;;;;3.10;2.63;;;;;;;;;;4993715;28;20185;-88
2023/04/02 18:50:18;;;;;;;3.77;2.27;;;;;;;;;;4993682;28;20225;-88
2023/04/02 18:53:24;;;;;;;2.27;2.07;;;;;;;;;;5005845;28;20555;-87
2023/04/02 18:56:30;;;;;;;2.83;2.57;;;;;;;;;;4994403;28;20190;-88
2023/04/02 18:59:45;;;;;;;3.07;2.77;;;;;;;;;;5004763;28;20221;-88
2023/04/02 19:03:03;;;;;;;3.17;2.70;;;;;;;;;;5005912;28;20205;-88
2023/04/02 19:06:22;;;;;;;5.03;3.07;;;;;;;;;;4994611;28;20186;-87
2023/04/02 19:09:30;;;;;;;2.93;2.67;;;;;;;;;;5005984;28;20221;-88
2023/04/02 19:12:35;;;;;;;2.90;2.60;;;;;;;;;;4993882;28;20206;-88
2023/04/02 19:16:06;;;;;;;3.77;3.00;;;;;;;;;;4994167;28;20189;-88
2023/04/02 19:19:19;;;;;;;3.37;3.03;;;;;;;;;;4982859;28;20225;-88
2023/04/02 19:22:50;;;;;;;3.50;3.10;;;;;;;;;;4993784;28;20213;-88
2023/04/02 19:26:01;;;;;;;3.73;3.23;;;;;;;;;;5004712;28;20185;-87
2023/04/02 19:29:24;;;;;;;3.43;3.00;;;;;;;;;;4992928;28;20217;-87
2023/04/02 19:32:52;;;;;;;3.93;3.53;;;;;;;;;;4993239;28;20638;-87
2023/04/02 19:36:14;;;;;;;5.17;3.77;;;;;;;;;;5004006;28;20185;-88
2023/04/02 19:39:30;;;;;;;4.43;3.80;;;;;;;;;;5004171;28;20209;-87
2023/04/02 19:42:44;;;;;;;6.17;4.73;;;;;;;;;;4992581;28;20671;-87
2023/04/02 19:45:49;;;;;;;3.70;3.30;;;;;;;;;;4992774;28;20535;-87
2023/04/02 19:49:02;;;;;;;4.23;3.50;;;;;;;;;;4995968;28;20713;-88
2023/04/02 19:52:09;;;;;;;4.50;3.90;;;;;;;;;;5013645;28;20181;-88
2023/04/02 19:55:13;;;;;;;5.03;4.10;;;;;;;;;;5012562;28;20189;-89
2023/04/02 19:58:26;;;;;;;3.93;3.43;;;;;;;;;;5023582;28;20236;-87
2023/04/02 20:01:30;;;;;;;6.90;3.77;;;;;;;;;;5012007;28;20185;-87
2023/04/02 20:04:35;;;;;;;4.40;3.70;;;;;;;;;;5011654;28;20200;-88
2023/04/02 20:07:39;;;;;;;4.70;3.87;;;;;;;;;;5023216;28;20185;-88
2023/04/02 20:10:44;;;;;;;12.83;6.00;;;;;;;;;;5012123;28;20184;-88
2023/04/02 20:13:49;;;;;;;5.63;3.97;;;;;;;;;;5000568;28;20180;-88
2023/04/02 20:16:53;;;;;;;5.57;4.23;;;;;;;;;;5023163;28;20185;-87
2023/04/02 20:19:57;;;;;;;5.00;4.10;;;;;;;;;;5000266;28;20578;-88
2023/04/02 20:23:01;;;;;;;5.37;3.93;;;;;;;;;;5011556;28;20188;-88
2023/04/02 20:26:05;;;;;;;8.37;5.33;;;;;;;;;;5011741;28;20633;-88
2023/04/02 20:29:10;;;;;;;5.70;4.40;;;;;;;;;;5011245;28;20216;-88
2023/04/02 20:32:16;;;;;;;4.93;3.73;;;;;;;;;;5011471;28;20193;-87
2023/04/02 20:35:20;;;;;;;5.17;4.20;;;;;;;;;;5011395;28;20189;-88
2023/04/02 20:38:26;;;;;;;5.20;4.20;;;;;;;;;;5011382;28;20720;-87
2023/04/02 20:41:30;;;;;;;4.57;3.60;;;;;;;;;;5011353;28;20662;-87
2023/04/02 20:44:34;;;;;;;4.23;3.53;;;;;;;;;;5011449;28;20185;-87
2023/04/02 20:47:38;;;;;;;4.63;4.03;;;;;;;;;;5011850;28;20209;-87
2023/04/02 20:50:44;;;;;;;5.63;4.13;;;;;;;;;;5022555;28;20185;-87
2023/04/02 20:53:49;;;;;;;4.23;3.83;;;;;;;;;;5022662;28;20185;-87
2023/04/02 20:56:53;;;;;;;5.23;3.90;;;;;;;;;;4999875;28;20197;-88
2023/04/02 20:59:57;;;;;;;4.03;3.63;;;;;;;;;;5011552;28;20213;-88
2023/04/02 21:03:01;;;;;;;4.20;3.80;;;;;;;;;;5034411;23;20169;-85
2023/04/02 21:06:12;;;;;;;6.23;3.93;;;;;;;;;;5001847;28;20193;-86
2023/04/02 21:09:18;;;;;;;5.57;4.33;;;;;;;;;;4991263;28;20523;-86